sensor_id;sensor_type;location;lat;lon;timestamp;temperature;humidity
57088;DHT22;42965;52.846;6.614;2022-12-24T00:00:04;7.90;99.90
57088;DHT22;42965;52.846;6.614;2022-12-24T00:02:33;7.90;99.90
57088;DHT22;42965;52.846;6.614;2022-12-24T00:04:59;8.00;99.90
57088;DHT22;42965;52.846;6.614;2022-12-24T00:07:26;8.00;99.90
57088;DHT22;42965;52.846;6.614;2022-12-24T00:09:52;8.10;99.90
57088;DHT22;42965;52.846;6.614;2022-12-24T00:12:18;8.20;99.90
57088;DHT22;42965;52.846;6.614;2022-12-24T00:14:45;8.20;99.90
57088;DHT22;42965;52.846;6.614;2022-12-24T00:17:11;8.30;99.90
57088;DHT22;42965;52.846;6.614;2022-12-24T00:19:37;8.40;99.90
57088;DHT22;42965;52.846;6.614;2022-12-24T00:22:03;8.40;99.90
57088;DHT22;42965;52.846;6.614;2022-12-24T00:24:31;8.50;99.90
57088;DHT22;42965;52.846;6.614;2022-12-24T00:26:57;8.50;99.90
57088;DHT22;42965;52.846;6.614;2022-12-24T00:29:23;8.50;99.90
57088;DHT22;42965;52.846;6.614;2022-12-24T00:31:50;8.60;99.90
57088;DHT22;42965;52.846;6.614;2022-12-24T00:34:16;8.50;99.90
57088;DHT22;42965;52.846;6.614;2022-12-24T00:36:50;8.60;99.90
57088;DHT22;42965;52.846;6.614;2022-12-24T00:39:16;8.60;99.90
57088;DHT22;42965;52.846;6.614;2022-12-24T00:41:46;8.60;99.90
57088;DHT22;42965;52.846;6.614;2022-12-24T00:44:13;8.60;99.90
57088;DHT22;42965;52.846;6.614;2022-12-24T00:46:42;8.60;99.90
57088;DHT22;42965;52.846;6.614;2022-12-24T00:49:11;8.70;99.90
57088;DHT22;42965;52.846;6.614;2022-12-24T00:51:37;8.70;99.90
57088;DHT22;42965;52.846;6.614;2022-12-24T00:54:05;8.70;99.90
57088;DHT22;42965;52.846;6.614;2022-12-24T00:56:33;8.70;99.90
57088;DHT22;42965;52.846;6.614;2022-12-24T00:59:02;8.70;99.90
57088;DHT22;42965;52.846;6.614;2022-12-24T01:01:28;8.80;99.90
57088;DHT22;42965;52.846;6.614;2022-12-24T01:03:55;8.80;99.90
57088;DHT22;42965;52.846;6.614;2022-12-24T01:06:41;8.80;99.90
57088;DHT22;42965;52.846;6.614;2022-12-24T01:09:26;8.80;99.90
57088;DHT22;42965;52.846;6.614;2022-12-24T01:11:53;8.80;99.90
57088;DHT22;42965;52.846;6.614;2022-12-24T01:14:19;8.80;99.90
57088;DHT22;42965;52.846;6.614;2022-12-24T01:16:46;8.80;99.90
57088;DHT22;42965;52.846;6.614;2022-12-24T01:19:12;8.80;99.90
57088;DHT22;42965;52.846;6.614;2022-12-24T01:21:38;8.80;99.90
57088;DHT22;42965;52.846;6.614;2022-12-24T01:24:05;8.80;99.90
57088;DHT22;42965;52.846;6.614;2022-12-24T01:26:31;8.80;99.90
57088;DHT22;42965;52.846;6.614;2022-12-24T01:28:58;8.80;99.90
57088;DHT22;42965;52.846;6.614;2022-12-24T01:31:24;8.90;99.90
57088;DHT22;42965;52.846;6.614;2022-12-24T01:33:51;8.90;99.90
57088;DHT22;42965;52.846;6.614;2022-12-24T01:36:17;8.90;99.90
57088;DHT22;42965;52.846;6.614;2022-12-24T01:38:43;8.90;99.90
57088;DHT22;42965;52.846;6.614;2022-12-24T01:41:20;9.00;99.90
57088;DHT22;42965;52.846;6.614;2022-12-24T01:44:23;9.00;99.90
57088;DHT22;42965;52.846;6.614;2022-12-24T01:47:30;9.00;99.90
57088;DHT22;42965;52.846;6.614;2022-12-24T01:49:59;9.00;99.90
57088;DHT22;42965;52.846;6.614;2022-12-24T01:52:33;9.00;99.90
57088;DHT22;42965;52.846;6.614;2022-12-24T01:55:13;9.10;99.90
57088;DHT22;42965;52.846;6.614;2022-12-24T01:57:52;9.10;99.90
57088;DHT22;42965;52.846;6.614;2022-12-24T02:00:19;9.10;99.90
57088;DHT22;42965;52.846;6.614;2022-12-24T02:02:48;9.10;99.90
57088;DHT22;42965;52.846;6.614;2022-12-24T02:07:50;9.10;99.90
57088;DHT22;42965;52.846;6.614;2022-12-24T02:10:23;9.10;99.90
57088;DHT22;42965;52.846;6.614;2022-12-24T02:12:49;9.10;99.90
57088;DHT22;42965;52.846;6.614;2022-12-24T02:15:18;9.10;99.90
57088;DHT22;42965;52.846;6.614;2022-12-24T02:18:03;9.20;99.90
57088;DHT22;42965;52.846;6.614;2022-12-24T02:30:04;9.20;99.90
57088;DHT22;42965;52.846;6.614;2022-12-24T02:37:33;9.20;99.90
57088;DHT22;42965;52.846;6.614;2022-12-24T02:40:18;9.10;99.90
57088;DHT22;42965;52.846;6.614;2022-12-24T02:42:52;9.10;99.90
57088;DHT22;42965;52.846;6.614;2022-12-24T02:45:25;9.20;99.90
57088;DHT22;42965;52.846;6.614;2022-12-24T02:47:54;9.20;99.90
57088;DHT22;42965;52.846;6.614;2022-12-24T02:50:22;9.20;99.90
57088;DHT22;42965;52.846;6.614;2022-12-24T02:52:48;9.10;99.90
57088;DHT22;42965;52.846;6.614;2022-12-24T03:00:25;9.10;99.90
57088;DHT22;42965;52.846;6.614;2022-12-24T03:03:23;9.10;99.90
57088;DHT22;42965;52.846;6.614;2022-12-24T03:06:07;9.10;99.90
57088;DHT22;42965;52.846;6.614;2022-12-24T03:09:07;9.10;99.90
57088;DHT22;42965;52.846;6.614;2022-12-24T03:11:37;9.10;99.90
57088;DHT22;42965;52.846;6.614;2022-12-24T03:14:05;9.00;99.90
57088;DHT22;42965;52.846;6.614;2022-12-24T03:16:31;9.00;99.90
57088;DHT22;42965;52.846;6.614;2022-12-24T03:18:59;9.00;99.90
57088;DHT22;42965;52.846;6.614;2022-12-24T03:21:34;9.00;99.90
57088;DHT22;42965;52.846;6.614;2022-12-24T03:24:03;8.90;99.90
57088;DHT22;42965;52.846;6.614;2022-12-24T03:26:31;8.90;99.90
57088;DHT22;42965;52.846;6.614;2022-12-24T03:28:58;8.90;99.90
57088;DHT22;42965;52.846;6.614;2022-12-24T03:31:42;8.90;99.90
57088;DHT22;42965;52.846;6.614;2022-12-24T03:34:10;9.00;99.90
57088;DHT22;42965;52.846;6.614;2022-12-24T03:36:38;9.00;99.90
57088;DHT22;42965;52.846;6.614;2022-12-24T03:39:09;9.10;99.90
57088;DHT22;42965;52.846;6.614;2022-12-24T03:41:36;9.20;99.90
57088;DHT22;42965;52.846;6.614;2022-12-24T03:44:03;9.30;99.90
57088;DHT22;42965;52.846;6.614;2022-12-24T03:46:29;9.30;99.90
57088;DHT22;42965;52.846;6.614;2022-12-24T03:48:57;9.30;99.90
57088;DHT22;42965;52.846;6.614;2022-12-24T03:51:24;9.30;99.90
57088;DHT22;42965;52.846;6.614;2022-12-24T03:53:52;9.30;99.90
57088;DHT22;42965;52.846;6.614;2022-12-24T03:56:19;9.20;99.90
57088;DHT22;42965;52.846;6.614;2022-12-24T03:58:46;9.20;99.90
57088;DHT22;42965;52.846;6.614;2022-12-24T04:01:13;9.20;99.90
57088;DHT22;42965;52.846;6.614;2022-12-24T04:03:39;9.20;99.90
57088;DHT22;42965;52.846;6.614;2022-12-24T04:06:11;9.20;99.90
57088;DHT22;42965;52.846;6.614;2022-12-24T04:08:40;9.10;99.90
57088;DHT22;42965;52.846;6.614;2022-12-24T04:11:09;9.10;99.90
57088;DHT22;42965;52.846;6.614;2022-12-24T04:13:36;9.10;99.90
57088;DHT22;42965;52.846;6.614;2022-12-24T04:16:07;9.10;99.90
57088;DHT22;42965;52.846;6.614;2022-12-24T04:18:34;9.10;99.90
57088;DHT22;42965;52.846;6.614;2022-12-24T04:21:01;9.10;99.90
57088;DHT22;42965;52.846;6.614;2022-12-24T04:23:30;9.10;99.90
57088;DHT22;42965;52.846;6.614;2022-12-24T04:26:01;9.10;99.90
57088;DHT22;42965;52.846;6.614;2022-12-24T04:28:29;9.10;99.90
57088;DHT22;42965;52.846;6.614;2022-12-24T04:31:03;9.10;99.90
57088;DHT22;42965;52.846;6.614;2022-12-24T04:33:31;9.00;99.90
57088;DHT22;42965;52.846;6.614;2022-12-24T04:35:58;9.00;99.90
57088;DHT22;42965;52.846;6.614;2022-12-24T04:38:24;9.00;99.90
57088;DHT22;42965;52.846;6.614;2022-12-24T04:41:04;8.90;99.90
57088;DHT22;42965;52.846;6.614;2022-12-24T04:43:39;9.00;99.90
57088;DHT22;42965;52.846;6.614;2022-12-24T04:46:12;8.90;99.90
57088;DHT22;42965;52.846;6.614;2022-12-24T04:48:43;8.90;99.90
57088;DHT22;42965;52.846;6.614;2022-12-24T04:51:11;9.00;99.90
57088;DHT22;42965;52.846;6.614;2022-12-24T04:53:38;9.00;99.90
57088;DHT22;42965;52.846;6.614;2022-12-24T04:56:22;9.00;99.90
57088;DHT22;42965;52.846;6.614;2022-12-24T04:58:49;9.00;99.90
57088;DHT22;42965;52.846;6.614;2022-12-24T05:01:21;9.00;99.90
57088;DHT22;42965;52.846;6.614;2022-12-24T05:03:50;9.00;99.90
57088;DHT22;42965;52.846;6.614;2022-12-24T05:06:21;9.00;99.90
57088;DHT22;42965;52.846;6.614;2022-12-24T05:08:48;9.00;99.90
57088;DHT22;42965;52.846;6.614;2022-12-24T05:11:15;9.00;99.90
57088;DHT22;42965;52.846;6.614;2022-12-24T05:13:42;9.00;99.90
57088;DHT22;42965;52.846;6.614;2022-12-24T05:16:10;9.10;99.90
57088;DHT22;42965;52.846;6.614;2022-12-24T05:18:36;9.10;99.90
57088;DHT22;42965;52.846;6.614;2022-12-24T05:21:07;9.10;99.90
57088;DHT22;42965;52.846;6.614;2022-12-24T05:23:34;9.20;99.90
57088;DHT22;42965;52.846;6.614;2022-12-24T05:26:35;9.20;99.90
57088;DHT22;42965;52.846;6.614;2022-12-24T05:29:04;9.20;99.90
57088;DHT22;42965;52.846;6.614;2022-12-24T05:31:33;9.20;99.90
57088;DHT22;42965;52.846;6.614;2022-12-24T05:34:02;9.20;99.90
57088;DHT22;42965;52.846;6.614;2022-12-24T05:36:28;9.20;99.90
57088;DHT22;42965;52.846;6.614;2022-12-24T05:38:55;9.20;99.90
57088;DHT22;42965;52.846;6.614;2022-12-24T05:41:21;9.20;99.90
57088;DHT22;42965;52.846;6.614;2022-12-24T05:43:48;9.20;99.90
57088;DHT22;42965;52.846;6.614;2022-12-24T05:46:17;9.20;99.90
57088;DHT22;42965;52.846;6.614;2022-12-24T05:48:47;9.20;99.90
57088;DHT22;42965;52.846;6.614;2022-12-24T05:51:16;9.20;99.90
57088;DHT22;42965;52.846;6.614;2022-12-24T05:53:48;9.20;99.90
57088;DHT22;42965;52.846;6.614;2022-12-24T05:56:18;9.20;99.90
57088;DHT22;42965;52.846;6.614;2022-12-24T05:58:45;9.30;99.90
57088;DHT22;42965;52.846;6.614;2022-12-24T06:01:13;9.20;99.90
57088;DHT22;42965;52.846;6.614;2022-12-24T06:03:40;9.20;99.90
57088;DHT22;42965;52.846;6.614;2022-12-24T06:06:15;9.20;99.90
57088;DHT22;42965;52.846;6.614;2022-12-24T06:08:44;9.20;99.90
57088;DHT22;42965;52.846;6.614;2022-12-24T06:11:14;9.20;99.90
57088;DHT22;42965;52.846;6.614;2022-12-24T06:13:41;9.30;99.90
57088;DHT22;42965;52.846;6.614;2022-12-24T06:16:17;9.20;99.90
57088;DHT22;42965;52.846;6.614;2022-12-24T06:18:53;9.30;99.90
57088;DHT22;42965;52.846;6.614;2022-12-24T06:21:19;9.30;99.90
57088;DHT22;42965;52.846;6.614;2022-12-24T06:23:46;9.30;99.90
57088;DHT22;42965;52.846;6.614;2022-12-24T06:26:16;9.30;99.90
57088;DHT22;42965;52.846;6.614;2022-12-24T06:28:44;9.30;99.90
57088;DHT22;42965;52.846;6.614;2022-12-24T06:31:13;9.40;99.90
57088;DHT22;42965;52.846;6.614;2022-12-24T06:33:43;9.40;99.90
57088;DHT22;42965;52.846;6.614;2022-12-24T06:36:13;9.40;99.90
57088;DHT22;42965;52.846;6.614;2022-12-24T06:38:40;9.40;99.90
57088;DHT22;42965;52.846;6.614;2022-12-24T06:41:07;9.40;99.90
57088;DHT22;42965;52.846;6.614;2022-12-24T06:43:34;9.40;99.90
57088;DHT22;42965;52.846;6.614;2022-12-24T06:46:03;9.40;99.90
57088;DHT22;42965;52.846;6.614;2022-12-24T06:48:30;9.40;99.90
57088;DHT22;42965;52.846;6.614;2022-12-24T06:50:56;9.40;99.90
57088;DHT22;42965;52.846;6.614;2022-12-24T06:53:23;9.40;99.90
57088;DHT22;42965;52.846;6.614;2022-12-24T06:55:52;9.40;99.90
57088;DHT22;42965;52.846;6.614;2022-12-24T06:58:18;9.40;99.90
57088;DHT22;42965;52.846;6.614;2022-12-24T07:00:46;9.40;99.90
57088;DHT22;42965;52.846;6.614;2022-12-24T07:03:13;9.40;99.90
57088;DHT22;42965;52.846;6.614;2022-12-24T07:05:42;9.50;99.90
57088;DHT22;42965;52.846;6.614;2022-12-24T07:08:14;9.50;99.90
57088;DHT22;42965;52.846;6.614;2022-12-24T07:10:40;9.40;99.90
57088;DHT22;42965;52.846;6.614;2022-12-24T07:13:07;9.40;99.90
57088;DHT22;42965;52.846;6.614;2022-12-24T07:18:34;9.40;99.90
57088;DHT22;42965;52.846;6.614;2022-12-24T07:21:03;9.40;99.90
57088;DHT22;42965;52.846;6.614;2022-12-24T07:23:29;9.30;99.90
57088;DHT22;42965;52.846;6.614;2022-12-24T07:26:00;9.30;99.90
57088;DHT22;42965;52.846;6.614;2022-12-24T07:28:28;9.30;99.90
57088;DHT22;42965;52.846;6.614;2022-12-24T07:30:56;9.30;99.90
57088;DHT22;42965;52.846;6.614;2022-12-24T07:33:23;9.30;99.90
57088;DHT22;42965;52.846;6.614;2022-12-24T07:35:57;9.30;99.90
57088;DHT22;42965;52.846;6.614;2022-12-24T07:38:23;9.20;99.90
57088;DHT22;42965;52.846;6.614;2022-12-24T07:40:50;9.30;99.90
57088;DHT22;42965;52.846;6.614;2022-12-24T07:43:16;9.20;99.90
57088;DHT22;42965;52.846;6.614;2022-12-24T07:45:43;9.20;99.90
57088;DHT22;42965;52.846;6.614;2022-12-24T07:48:09;9.20;99.90
57088;DHT22;42965;52.846;6.614;2022-12-24T07:50:35;9.30;99.90
57088;DHT22;42965;52.846;6.614;2022-12-24T07:53:02;9.30;99.90
57088;DHT22;42965;52.846;6.614;2022-12-24T07:55:29;9.20;99.90
57088;DHT22;42965;52.846;6.614;2022-12-24T07:57:56;9.20;99.90
57088;DHT22;42965;52.846;6.614;2022-12-24T08:00:23;9.20;99.90
57088;DHT22;42965;52.846;6.614;2022-12-24T08:02:49;9.20;99.90
57088;DHT22;42965;52.846;6.614;2022-12-24T08:05:15;9.20;99.90
57088;DHT22;42965;52.846;6.614;2022-12-24T08:07:45;9.20;99.90
57088;DHT22;42965;52.846;6.614;2022-12-24T08:10:12;9.20;99.90
57088;DHT22;42965;52.846;6.614;2022-12-24T08:12:38;9.20;99.90
57088;DHT22;42965;52.846;6.614;2022-12-24T08:15:05;9.20;99.90
57088;DHT22;42965;52.846;6.614;2022-12-24T08:17:31;9.20;99.90
57088;DHT22;42965;52.846;6.614;2022-12-24T08:19:57;9.30;99.90
57088;DHT22;42965;52.846;6.614;2022-12-24T08:22:24;9.30;99.90
57088;DHT22;42965;52.846;6.614;2022-12-24T08:24:50;9.30;99.90
57088;DHT22;42965;52.846;6.614;2022-12-24T08:27:16;9.30;99.90
57088;DHT22;42965;52.846;6.614;2022-12-24T08:29:43;9.30;99.90
57088;DHT22;42965;52.846;6.614;2022-12-24T08:32:10;9.40;99.90
57088;DHT22;42965;52.846;6.614;2022-12-24T08:34:36;9.30;99.90
57088;DHT22;42965;52.846;6.614;2022-12-24T08:37:03;9.40;99.90
57088;DHT22;42965;52.846;6.614;2022-12-24T08:39:33;9.50;99.90
57088;DHT22;42965;52.846;6.614;2022-12-24T08:42:00;9.40;99.90
57088;DHT22;42965;52.846;6.614;2022-12-24T08:44:26;9.50;99.90
57088;DHT22;42965;52.846;6.614;2022-12-24T08:46:52;9.50;99.90
57088;DHT22;42965;52.846;6.614;2022-12-24T08:49:26;9.50;99.90
57088;DHT22;42965;52.846;6.614;2022-12-24T08:51:52;9.50;99.90
57088;DHT22;42965;52.846;6.614;2022-12-24T08:54:18;9.60;99.90
57088;DHT22;42965;52.846;6.614;2022-12-24T08:56:46;9.60;99.90
57088;DHT22;42965;52.846;6.614;2022-12-24T08:59:12;9.60;99.90
57088;DHT22;42965;52.846;6.614;2022-12-24T09:01:38;9.60;99.90
57088;DHT22;42965;52.846;6.614;2022-12-24T09:04:05;9.60;99.90
57088;DHT22;42965;52.846;6.614;2022-12-24T09:06:32;9.70;99.90
57088;DHT22;42965;52.846;6.614;2022-12-24T09:08:58;9.70;99.90
57088;DHT22;42965;52.846;6.614;2022-12-24T09:11:25;9.70;99.90
57088;DHT22;42965;52.846;6.614;2022-12-24T09:13:51;9.70;99.90
57088;DHT22;42965;52.846;6.614;2022-12-24T09:16:17;9.70;99.90
57088;DHT22;42965;52.846;6.614;2022-12-24T09:18:48;9.70;99.90
57088;DHT22;42965;52.846;6.614;2022-12-24T09:21:15;9.80;99.90
57088;DHT22;42965;52.846;6.614;2022-12-24T09:23:44;9.80;99.90
57088;DHT22;42965;52.846;6.614;2022-12-24T09:26:20;9.80;99.90
57088;DHT22;42965;52.846;6.614;2022-12-24T09:28:48;9.80;99.90
57088;DHT22;42965;52.846;6.614;2022-12-24T09:31:27;9.80;99.90
57088;DHT22;42965;52.846;6.614;2022-12-24T09:33:54;9.80;99.90
57088;DHT22;42965;52.846;6.614;2022-12-24T09:36:21;9.80;99.90
57088;DHT22;42965;52.846;6.614;2022-12-24T09:38:49;9.90;99.90
57088;DHT22;42965;52.846;6.614;2022-12-24T09:44:31;10.00;99.90
57088;DHT22;42965;52.846;6.614;2022-12-24T09:47:05;10.00;99.90
57088;DHT22;42965;52.846;6.614;2022-12-24T09:49:43;9.90;99.90
57088;DHT22;42965;52.846;6.614;2022-12-24T09:52:14;9.90;99.90
57088;DHT22;42965;52.846;6.614;2022-12-24T09:54:57;9.80;99.90
57088;DHT22;42965;52.846;6.614;2022-12-24T09:57:33;9.80;99.90
57088;DHT22;42965;52.846;6.614;2022-12-24T10:00:03;9.80;99.90
57088;DHT22;42965;52.846;6.614;2022-12-24T10:02:36;9.80;99.90
57088;DHT22;42965;52.846;6.614;2022-12-24T10:05:02;9.70;99.90
57088;DHT22;42965;52.846;6.614;2022-12-24T10:08:02;9.80;99.90
57088;DHT22;42965;52.846;6.614;2022-12-24T10:10:50;9.80;99.90
57088;DHT22;42965;52.846;6.614;2022-12-24T10:16:17;9.90;99.90
57088;DHT22;42965;52.846;6.614;2022-12-24T10:19:01;10.00;99.90
57088;DHT22;42965;52.846;6.614;2022-12-24T10:24:42;10.00;99.90
57088;DHT22;42965;52.846;6.614;2022-12-24T10:27:15;10.00;99.90
57088;DHT22;42965;52.846;6.614;2022-12-24T10:29:46;10.10;99.90
57088;DHT22;42965;52.846;6.614;2022-12-24T10:32:21;10.00;99.90
57088;DHT22;42965;52.846;6.614;2022-12-24T10:37:46;10.10;99.90
57088;DHT22;42965;52.846;6.614;2022-12-24T10:42:49;10.10;99.90
57088;DHT22;42965;52.846;6.614;2022-12-24T10:45:20;10.20;99.90
57088;DHT22;42965;52.846;6.614;2022-12-24T10:47:54;10.20;99.90
57088;DHT22;42965;52.846;6.614;2022-12-24T10:50:34;10.20;99.90
57088;DHT22;42965;52.846;6.614;2022-12-24T10:55:38;10.30;99.90
57088;DHT22;42965;52.846;6.614;2022-12-24T10:58:09;10.30;99.90
57088;DHT22;42965;52.846;6.614;2022-12-24T11:00:39;10.30;99.90
57088;DHT22;42965;52.846;6.614;2022-12-24T11:03:23;10.20;99.90
57088;DHT22;42965;52.846;6.614;2022-12-24T11:08:31;10.20;99.90
57088;DHT22;42965;52.846;6.614;2022-12-24T11:11:01;10.20;99.90
57088;DHT22;42965;52.846;6.614;2022-12-24T11:16:32;10.20;99.90
57088;DHT22;42965;52.846;6.614;2022-12-24T11:19:01;10.20;99.90
57088;DHT22;42965;52.846;6.614;2022-12-24T11:21:33;10.10;99.90
57088;DHT22;42965;52.846;6.614;2022-12-24T11:24:23;10.10;99.90
57088;DHT22;42965;52.846;6.614;2022-12-24T11:26:51;10.10;99.90
57088;DHT22;42965;52.846;6.614;2022-12-24T11:29:21;10.10;99.90
57088;DHT22;42965;52.846;6.614;2022-12-24T11:31:49;10.10;99.90
57088;DHT22;42965;52.846;6.614;2022-12-24T11:34:22;10.10;99.90
57088;DHT22;42965;52.846;6.614;2022-12-24T11:36:49;10.10;99.90
57088;DHT22;42965;52.846;6.614;2022-12-24T11:39:25;10.20;99.90
57088;DHT22;42965;52.846;6.614;2022-12-24T11:41:52;10.20;99.90
57088;DHT22;42965;52.846;6.614;2022-12-24T11:44:26;10.20;99.90
57088;DHT22;42965;52.846;6.614;2022-12-24T11:46:54;10.30;99.90
57088;DHT22;42965;52.846;6.614;2022-12-24T11:49:31;10.40;99.90
57088;DHT22;42965;52.846;6.614;2022-12-24T11:52:18;10.40;99.90
57088;DHT22;42965;52.846;6.614;2022-12-24T11:58:24;10.40;99.90
57088;DHT22;42965;52.846;6.614;2022-12-24T12:00:32;10.50;99.90
57088;DHT22;42965;52.846;6.614;2022-12-24T12:03:01;10.60;99.90
57088;DHT22;42965;52.846;6.614;2022-12-24T12:05:31;10.80;99.90
57088;DHT22;42965;52.846;6.614;2022-12-24T12:08:16;10.80;99.90
57088;DHT22;42965;52.846;6.614;2022-12-24T12:10:48;10.70;99.90
57088;DHT22;42965;52.846;6.614;2022-12-24T12:13:27;10.70;99.90
57088;DHT22;42965;52.846;6.614;2022-12-24T12:16:49;10.60;99.90
57088;DHT22;42965;52.846;6.614;2022-12-24T12:19:02;10.60;99.90
57088;DHT22;42965;52.846;6.614;2022-12-24T12:21:37;10.50;99.90
57088;DHT22;42965;52.846;6.614;2022-12-24T12:24:13;10.50;99.90
57088;DHT22;42965;52.846;6.614;2022-12-24T12:26:42;10.50;99.90
57088;DHT22;42965;52.846;6.614;2022-12-24T12:29:31;10.50;99.90
57088;DHT22;42965;52.846;6.614;2022-12-24T12:32:14;10.60;99.90
57088;DHT22;42965;52.846;6.614;2022-12-24T12:37:36;10.60;99.90
57088;DHT22;42965;52.846;6.614;2022-12-24T12:40:13;10.50;99.90
57088;DHT22;42965;52.846;6.614;2022-12-24T12:42:46;10.50;99.90
57088;DHT22;42965;52.846;6.614;2022-12-24T12:50:35;10.40;99.90
57088;DHT22;42965;52.846;6.614;2022-12-24T12:56:32;10.30;99.90
57088;DHT22;42965;52.846;6.614;2022-12-24T12:59:17;10.40;99.90
57088;DHT22;42965;52.846;6.614;2022-12-24T13:04:35;10.40;99.90
57088;DHT22;42965;52.846;6.614;2022-12-24T13:10:18;10.40;99.90
57088;DHT22;42965;52.846;6.614;2022-12-24T13:13:08;10.40;99.90
57088;DHT22;42965;52.846;6.614;2022-12-24T13:15:55;10.30;99.90
57088;DHT22;42965;52.846;6.614;2022-12-24T13:18:54;10.30;99.90
57088;DHT22;42965;52.846;6.614;2022-12-24T13:21:23;10.30;99.90
57088;DHT22;42965;52.846;6.614;2022-12-24T13:24:11;10.30;99.90
57088;DHT22;42965;52.846;6.614;2022-12-24T13:26:40;10.40;99.90
57088;DHT22;42965;52.846;6.614;2022-12-24T13:37:22;10.30;99.90
57088;DHT22;42965;52.846;6.614;2022-12-24T13:48:27;10.20;99.90
57088;DHT22;42965;52.846;6.614;2022-12-24T13:53:43;10.30;99.90
57088;DHT22;42965;52.846;6.614;2022-12-24T13:58:45;10.30;99.90
57088;DHT22;42965;52.846;6.614;2022-12-24T14:01:21;10.30;99.90
57088;DHT22;42965;52.846;6.614;2022-12-24T14:04:00;10.20;99.90
57088;DHT22;42965;52.846;6.614;2022-12-24T14:06:35;10.10;99.90
57088;DHT22;42965;52.846;6.614;2022-12-24T14:14:30;10.10;99.90
57088;DHT22;42965;52.846;6.614;2022-12-24T14:16:58;10.00;99.90
57088;DHT22;42965;52.846;6.614;2022-12-24T14:19:39;10.10;99.90
57088;DHT22;42965;52.846;6.614;2022-12-24T14:24:55;10.00;99.90
57088;DHT22;42965;52.846;6.614;2022-12-24T14:30:15;10.10;99.90
57088;DHT22;42965;52.846;6.614;2022-12-24T14:32:42;10.10;99.90
57088;DHT22;42965;52.846;6.614;2022-12-24T14:37:50;10.00;99.90
57088;DHT22;42965;52.846;6.614;2022-12-24T14:40:26;10.00;99.90
57088;DHT22;42965;52.846;6.614;2022-12-24T14:43:01;10.00;99.90
57088;DHT22;42965;52.846;6.614;2022-12-24T14:45:44;9.90;99.90
57088;DHT22;42965;52.846;6.614;2022-12-24T14:48:27;9.90;99.90
57088;DHT22;42965;52.846;6.614;2022-12-24T14:51:05;9.90;99.90
57088;DHT22;42965;52.846;6.614;2022-12-24T14:53:56;9.80;99.90
57088;DHT22;42965;52.846;6.614;2022-12-24T14:56:26;9.80;99.90
57088;DHT22;42965;52.846;6.614;2022-12-24T14:58:57;9.80;99.90
57088;DHT22;42965;52.846;6.614;2022-12-24T15:01:31;9.80;99.90
57088;DHT22;42965;52.846;6.614;2022-12-24T15:06:55;9.70;99.90
57088;DHT22;42965;52.846;6.614;2022-12-24T15:09:25;9.70;99.90
57088;DHT22;42965;52.846;6.614;2022-12-24T15:11:57;9.70;99.90
57088;DHT22;42965;52.846;6.614;2022-12-24T15:14:26;9.60;99.90
57088;DHT22;42965;52.846;6.614;2022-12-24T15:17:12;9.60;99.90
57088;DHT22;42965;52.846;6.614;2022-12-24T15:19:42;9.60;99.90
57088;DHT22;42965;52.846;6.614;2022-12-24T15:22:25;9.60;99.90
57088;DHT22;42965;52.846;6.614;2022-12-24T15:24:53;9.60;99.90
57088;DHT22;42965;52.846;6.614;2022-12-24T15:27:22;9.60;99.90
57088;DHT22;42965;52.846;6.614;2022-12-24T15:30:03;9.50;99.90
57088;DHT22;42965;52.846;6.614;2022-12-24T15:32:30;9.50;99.90
57088;DHT22;42965;52.846;6.614;2022-12-24T15:34:59;9.50;99.90
57088;DHT22;42965;52.846;6.614;2022-12-24T15:37:34;9.50;99.90
57088;DHT22;42965;52.846;6.614;2022-12-24T15:40:19;9.40;99.90
57088;DHT22;42965;52.846;6.614;2022-12-24T15:42:46;9.40;99.90
57088;DHT22;42965;52.846;6.614;2022-12-24T15:45:16;9.30;99.90
57088;DHT22;42965;52.846;6.614;2022-12-24T15:47:55;9.30;99.90
57088;DHT22;42965;52.846;6.614;2022-12-24T15:50:31;9.20;99.90
57088;DHT22;42965;52.846;6.614;2022-12-24T15:53:06;9.20;99.90
57088;DHT22;42965;52.846;6.614;2022-12-24T15:55:37;9.10;99.90
57088;DHT22;42965;52.846;6.614;2022-12-24T15:58:17;9.10;99.90
57088;DHT22;42965;52.846;6.614;2022-12-24T16:03:35;9.00;99.90
57088;DHT22;42965;52.846;6.614;2022-12-24T16:06:05;8.90;99.90
57088;DHT22;42965;52.846;6.614;2022-12-24T16:08:37;8.90;99.90
57088;DHT22;42965;52.846;6.614;2022-12-24T16:11:16;8.80;99.90
57088;DHT22;42965;52.846;6.614;2022-12-24T16:16:18;8.70;99.90
57088;DHT22;42965;52.846;6.614;2022-12-24T16:18:54;8.60;99.90
57088;DHT22;42965;52.846;6.614;2022-12-24T16:21:33;8.60;99.90
57088;DHT22;42965;52.846;6.614;2022-12-24T16:26:33;8.50;99.90
57088;DHT22;42965;52.846;6.614;2022-12-24T16:28:59;8.50;99.90
57088;DHT22;42965;52.846;6.614;2022-12-24T16:31:38;8.40;99.90
57088;DHT22;42965;52.846;6.614;2022-12-24T16:34:09;8.40;99.90
57088;DHT22;42965;52.846;6.614;2022-12-24T16:36:37;8.30;99.90
57088;DHT22;42965;52.846;6.614;2022-12-24T16:39:03;8.20;99.90
57088;DHT22;42965;52.846;6.614;2022-12-24T16:41:52;8.20;99.90
57088;DHT22;42965;52.846;6.614;2022-12-24T16:44:37;8.20;99.90
57088;DHT22;42965;52.846;6.614;2022-12-24T16:47:06;8.00;99.90
57088;DHT22;42965;52.846;6.614;2022-12-24T16:49:36;8.00;99.90
57088;DHT22;42965;52.846;6.614;2022-12-24T16:52:05;7.90;99.90
57088;DHT22;42965;52.846;6.614;2022-12-24T16:54:32;7.90;99.90
57088;DHT22;42965;52.846;6.614;2022-12-24T16:56:58;7.80;99.90
57088;DHT22;42965;52.846;6.614;2022-12-24T16:59:24;7.80;99.90
57088;DHT22;42965;52.846;6.614;2022-12-24T17:01:50;7.80;99.90
57088;DHT22;42965;52.846;6.614;2022-12-24T17:04:17;7.70;99.90
57088;DHT22;42965;52.846;6.614;2022-12-24T17:06:47;7.70;99.90
57088;DHT22;42965;52.846;6.614;2022-12-24T17:09:15;7.60;99.90
57088;DHT22;42965;52.846;6.614;2022-12-24T17:11:41;7.50;99.90
57088;DHT22;42965;52.846;6.614;2022-12-24T17:14:11;7.40;99.90
57088;DHT22;42965;52.846;6.614;2022-12-24T17:16:37;7.40;99.90
57088;DHT22;42965;52.846;6.614;2022-12-24T17:19:04;7.30;99.90
57088;DHT22;42965;52.846;6.614;2022-12-24T17:21:31;7.30;99.90
57088;DHT22;42965;52.846;6.614;2022-12-24T17:23:57;7.20;99.90
57088;DHT22;42965;52.846;6.614;2022-12-24T17:26:23;7.00;99.90
57088;DHT22;42965;52.846;6.614;2022-12-24T17:28:56;6.90;99.90
57088;DHT22;42965;52.846;6.614;2022-12-24T17:31:24;6.80;99.90
57088;DHT22;42965;52.846;6.614;2022-12-24T17:33:51;6.70;99.90
57088;DHT22;42965;52.846;6.614;2022-12-24T17:36:18;6.70;99.90
57088;DHT22;42965;52.846;6.614;2022-12-24T17:38:45;6.50;99.90
57088;DHT22;42965;52.846;6.614;2022-12-24T17:41:14;6.50;99.90
57088;DHT22;42965;52.846;6.614;2022-12-24T17:43:41;6.50;99.90
57088;DHT22;42965;52.846;6.614;2022-12-24T17:46:16;6.40;99.90
57088;DHT22;42965;52.846;6.614;2022-12-24T17:48:43;6.50;99.90
57088;DHT22;42965;52.846;6.614;2022-12-24T17:51:11;6.30;99.90
57088;DHT22;42965;52.846;6.614;2022-12-24T17:53:39;6.40;99.90
57088;DHT22;42965;52.846;6.614;2022-12-24T17:56:07;6.40;99.90
57088;DHT22;42965;52.846;6.614;2022-12-24T17:58:35;6.40;99.90
57088;DHT22;42965;52.846;6.614;2022-12-24T18:01:02;6.30;99.90